createdAt,value
2017-10-31T00:00:19.351Z,101693.66
2017-10-31T00:02:46.833Z,101694.14
2017-10-31T00:05:14.289Z,101691.25
2017-10-31T00:07:41.753Z,101687.55
2017-10-31T00:10:09.190Z,101687.38
2017-10-31T00:12:36.670Z,101682.45
2017-10-31T00:15:04.116Z,101678.89
2017-10-31T00:17:31.653Z,101680.22
2017-10-31T00:19:59.114Z,101681.39
2017-10-31T00:22:26.642Z,101678.09
2017-10-31T00:24:54.120Z,101683.89
2017-10-31T00:27:21.555Z,101684.37
2017-10-31T00:29:49.019Z,101686.96
2017-10-31T00:32:16.474Z,101693.64
2017-10-31T00:34:43.930Z,101688.16
2017-10-31T00:37:11.372Z,101692.28
2017-10-31T00:39:38.967Z,101689.72
2017-10-31T00:42:06.401Z,101694.03
2017-10-31T00:44:33.865Z,101690.13
2017-10-31T00:47:01.312Z,101691.86
2017-10-31T00:49:28.805Z,101690.44
2017-10-31T00:51:56.238Z,101691.99
2017-10-31T00:54:23.686Z,101693.12
2017-10-31T00:56:51.118Z,101688.53
2017-10-31T00:59:18.581Z,101690.72
2017-10-31T01:01:46.024Z,101690.68
2017-10-31T01:04:13.495Z,101685.48
2017-10-31T01:06:40.939Z,101684.16
2017-10-31T01:09:08.410Z,101688.06
2017-10-31T01:11:35.852Z,101679.78
2017-10-31T01:14:03.328Z,101676.66
2017-10-31T01:16:30.762Z,101676.08
2017-10-31T01:18:58.231Z,101683.13
2017-10-31T01:21:25.682Z,101679.38
2017-10-31T01:23:53.122Z,101673.25
2017-10-31T01:26:20.570Z,101679.45
2017-10-31T01:28:48.002Z,101679.31
2017-10-31T01:31:15.530Z,101675.59
2017-10-31T01:33:42.967Z,101674.41
2017-10-31T01:36:10.543Z,101683.53
2017-10-31T01:38:37.991Z,101680.30
2017-10-31T01:41:05.446Z,101683.28
2017-10-31T01:43:32.877Z,101680.15
2017-10-31T01:46:00.339Z,101675.51
2017-10-31T01:48:27.834Z,101679.12
2017-10-31T01:50:55.296Z,101683.97
2017-10-31T01:53:22.747Z,101681.87
2017-10-31T01:55:50.213Z,101670.48
2017-10-31T01:58:17.749Z,101668.31
2017-10-31T02:00:45.220Z,101673.06
2017-10-31T02:03:12.661Z,101665.36
2017-10-31T02:05:40.151Z,101663.91
2017-10-31T02:08:07.610Z,101665.73
2017-10-31T02:10:35.061Z,101670.81
2017-10-31T02:13:02.661Z,101665.77
2017-10-31T02:15:30.125Z,101666.91
2017-10-31T02:17:57.602Z,101666.30
2017-10-31T02:20:25.061Z,101660.37
2017-10-31T02:22:52.532Z,101662.58
2017-10-31T02:25:19.993Z,101660.37
2017-10-31T02:27:47.462Z,101659.72
2017-10-31T02:30:14.898Z,101661.44
2017-10-31T02:32:42.348Z,101655.83
2017-10-31T02:35:09.832Z,101652.78
2017-10-31T02:37:37.296Z,101652.58
2017-10-31T02:40:04.728Z,101659.03
2017-10-31T02:42:32.195Z,101655.70
2017-10-31T02:44:59.645Z,101657.88
2017-10-31T02:47:27.098Z,101650.50
2017-10-31T02:49:54.554Z,101658.59
2017-10-31T02:52:22.113Z,101648.19
2017-10-31T02:54:49.574Z,101656.46
2017-10-31T02:57:17.040Z,101655.62
2017-10-31T02:59:44.574Z,101659.48
2017-10-31T03:02:12.025Z,101654.75
2017-10-31T03:04:39.490Z,101650.16
2017-10-31T03:07:06.960Z,101652.75
2017-10-31T03:09:34.509Z,101652.38
2017-10-31T03:12:01.958Z,101659.34
2017-10-31T03:14:29.427Z,101660.94
2017-10-31T03:16:56.867Z,101662.61
2017-10-31T03:19:24.323Z,101673.69
2017-10-31T03:21:51.749Z,101664.91
2017-10-31T03:24:19.216Z,101657.93
2017-10-31T03:26:46.686Z,101663.39
2017-10-31T03:29:14.142Z,101661.92
2017-10-31T03:31:41.569Z,101658.55
2017-10-31T03:34:09.019Z,101661.64
2017-10-31T03:36:36.454Z,101666.84
2017-10-31T03:39:03.910Z,101665.66
2017-10-31T03:41:31.447Z,101666.35
2017-10-31T03:43:58.904Z,101669.93
2017-10-31T03:46:26.340Z,101677.11
2017-10-31T03:48:53.797Z,101675.30
2017-10-31T03:51:21.239Z,101674.72
2017-10-31T03:53:48.708Z,101668.67
2017-10-31T03:56:16.148Z,101673.53
2017-10-31T03:58:43.622Z,101674.95
2017-10-31T04:01:11.064Z,101685.65
2017-10-31T04:03:38.515Z,101677.50
2017-10-31T04:06:05.974Z,101681.05
2017-10-31T04:08:33.433Z,101679.78
2017-10-31T04:11:00.894Z,101682.82
2017-10-31T04:13:28.342Z,101676.17
2017-10-31T04:15:55.815Z,101678.27
2017-10-31T04:18:23.256Z,101666.55
2017-10-31T04:20:50.731Z,101664.65
2017-10-31T04:23:18.165Z,101671.42
2017-10-31T04:25:45.649Z,101666.14
2017-10-31T04:28:13.120Z,101657.11
2017-10-31T04:30:40.628Z,101658.58
2017-10-31T04:33:08.138Z,101657.88
2017-10-31T04:35:35.694Z,101661.84
2017-10-31T04:38:03.146Z,101659.70
2017-10-31T04:40:30.573Z,101662.59
2017-10-31T04:42:58.041Z,101662.56
2017-10-31T04:45:25.474Z,101665.91
2017-10-31T04:47:52.951Z,101661.80
2017-10-31T04:50:20.395Z,101672.73
2017-10-31T04:52:47.874Z,101662.52
2017-10-31T04:55:15.330Z,101663.08
2017-10-31T04:57:42.808Z,101658.69
2017-10-31T05:00:10.352Z,101666.39
2017-10-31T05:02:37.778Z,101663.12
2017-10-31T05:05:05.249Z,101663.30
2017-10-31T05:07:32.684Z,101662.65
2017-10-31T05:10:00.141Z,101661.03
2017-10-31T05:12:27.584Z,101658.67
2017-10-31T05:14:55.095Z,101658.68
2017-10-31T05:17:22.541Z,101650.66
2017-10-31T05:19:50.010Z,101661.09
2017-10-31T05:22:17.441Z,101654.45
2017-10-31T05:24:44.898Z,101653.17
2017-10-31T05:27:12.336Z,101660.69
2017-10-31T05:29:40.064Z,101656.28
2017-10-31T05:32:07.494Z,101653.87
2017-10-31T05:34:34.962Z,101650.28
2017-10-31T05:37:02.394Z,101652.80
2017-10-31T05:39:29.866Z,101652.98
2017-10-31T05:41:57.326Z,101655.38
2017-10-31T05:44:24.766Z,101651.86
2017-10-31T05:46:52.244Z,101652.20
2017-10-31T05:49:19.682Z,101658.95
2017-10-31T05:51:47.143Z,101662.10
2017-10-31T05:54:14.586Z,101655.78
2017-10-31T05:56:42.039Z,101664.82
2017-10-31T05:59:09.514Z,101660.98
2017-10-31T06:01:36.966Z,101654.19
2017-10-31T06:04:04.439Z,101664.37
2017-10-31T06:06:31.908Z,101666.78
2017-10-31T06:08:59.347Z,101662.65
2017-10-31T06:11:26.820Z,101662.25
2017-10-31T06:13:54.257Z,101668.34
2017-10-31T06:16:21.725Z,101675.15
2017-10-31T06:18:49.153Z,101677.66
2017-10-31T06:21:16.626Z,101682.05
2017-10-31T06:26:50.594Z,101688.64
2017-10-31T06:29:23.777Z,101691.59
2017-10-31T06:32:12.185Z,101688.38
2017-10-31T06:34:39.630Z,101697.63
2017-10-31T06:37:07.099Z,101705.50
2017-10-31T06:39:34.583Z,101702.80
2017-10-31T06:42:02.024Z,101704.42
2017-10-31T06:44:29.598Z,101705.16
2017-10-31T06:46:57.044Z,101709.38
2017-10-31T06:49:24.531Z,101710.09
2017-10-31T06:51:51.996Z,101710.13
2017-10-31T06:54:19.497Z,101714.59
2017-10-31T06:56:46.939Z,101715.55
2017-10-31T06:59:14.386Z,101714.17
2017-10-31T07:01:41.818Z,101716.19
2017-10-31T07:04:09.290Z,101722.55
2017-10-31T07:06:36.746Z,101716.42
2017-10-31T07:09:04.217Z,101731.02
2017-10-31T07:11:31.650Z,101716.66
2017-10-31T07:13:59.089Z,101718.28
2017-10-31T07:16:26.580Z,101721.70
2017-10-31T07:18:54.027Z,101718.40
2017-10-31T07:21:21.505Z,101715.59
2017-10-31T07:23:48.934Z,101716.62
2017-10-31T07:26:16.412Z,101720.62
2017-10-31T07:28:43.866Z,101719.23
2017-10-31T07:31:11.336Z,101711.06
2017-10-31T07:33:38.820Z,101709.70
2017-10-31T07:36:06.308Z,101715.44
2017-10-31T07:38:33.756Z,101709.59
2017-10-31T07:41:01.279Z,101706.21
2017-10-31T07:43:28.715Z,101705.91
2017-10-31T07:45:56.229Z,101711.20
2017-10-31T07:48:23.663Z,101710.75
2017-10-31T07:50:51.140Z,101707.55
2017-10-31T07:53:18.585Z,101709.95
2017-10-31T07:55:46.039Z,101706.44
2017-10-31T07:58:13.588Z,101705.81
2017-10-31T08:00:41.054Z,101706.98
2017-10-31T08:03:08.528Z,101703.16
2017-10-31T08:05:35.988Z,101706.81
2017-10-31T08:08:03.469Z,101699.61
2017-10-31T08:10:30.961Z,101699.30
2017-10-31T08:12:58.447Z,101702.55
2017-10-31T08:15:25.908Z,101705.23
2017-10-31T08:17:53.410Z,101702.56
2017-10-31T08:20:20.859Z,101702.62
2017-10-31T08:22:48.329Z,101708.09
2017-10-31T08:25:15.774Z,101698.05
2017-10-31T08:27:43.629Z,101698.69
2017-10-31T08:30:11.101Z,101698.03
2017-10-31T08:32:38.647Z,101700.72
2017-10-31T08:35:06.102Z,101701.23
2017-10-31T08:37:33.574Z,101691.71
2017-10-31T08:40:01.019Z,101695.88
2017-10-31T08:42:28.487Z,101689.58
2017-10-31T08:44:55.955Z,101686.50
2017-10-31T08:47:23.437Z,101693.42
2017-10-31T08:49:50.894Z,101687.02
2017-10-31T08:52:18.366Z,101687.11
2017-10-31T08:54:45.821Z,101678.66
2017-10-31T08:57:13.260Z,101685.94
2017-10-31T08:59:42.574Z,101695.73
2017-10-31T09:02:10.026Z,101693.20
2017-10-31T09:04:37.501Z,101689.55
2017-10-31T09:07:04.941Z,101688.48
2017-10-31T09:09:32.437Z,101694.06
2017-10-31T09:11:59.939Z,101691.05
2017-10-31T09:14:27.395Z,101692.97
2017-10-31T09:16:54.840Z,101691.78
2017-10-31T09:19:22.299Z,101698.06
2017-10-31T09:21:49.767Z,101690.87
2017-10-31T09:24:17.197Z,101694.12
2017-10-31T09:26:44.693Z,101696.16
2017-10-31T09:29:12.231Z,101696.24
2017-10-31T09:31:39.803Z,101700.43
2017-10-31T09:34:07.255Z,101697.00
2017-10-31T09:36:34.739Z,101689.78
2017-10-31T09:39:02.182Z,101693.06
2017-10-31T09:41:29.638Z,101695.40
2017-10-31T09:43:57.096Z,101695.27
2017-10-31T09:46:24.630Z,101690.72
2017-10-31T09:48:52.064Z,101686.60
2017-10-31T09:51:19.542Z,101687.94
2017-10-31T09:53:46.989Z,101688.82
2017-10-31T09:56:14.451Z,101680.98
2017-10-31T09:58:41.899Z,101679.27
2017-10-31T10:01:09.338Z,101684.49
2017-10-31T10:03:36.790Z,101679.70
2017-10-31T10:06:04.230Z,101681.41
2017-10-31T10:08:31.758Z,101675.90
2017-10-31T10:10:59.197Z,101670.06
2017-10-31T10:13:26.674Z,101673.28
2017-10-31T10:15:54.148Z,101671.17
2017-10-31T10:18:21.598Z,101667.64
2017-10-31T10:20:49.042Z,101660.14
2017-10-31T10:23:16.561Z,101664.64
2017-10-31T10:25:44.020Z,101666.94
2017-10-31T10:28:11.469Z,101662.62
2017-10-31T10:30:38.909Z,101660.42
2017-10-31T10:33:06.420Z,101647.63
2017-10-31T10:35:33.928Z,101640.11
2017-10-31T10:38:01.697Z,101646.22
2017-10-31T10:40:29.199Z,101634.44
2017-10-31T10:42:56.642Z,101627.39
2017-10-31T10:45:24.469Z,101629.20
2017-10-31T10:47:51.942Z,101627.14
2017-10-31T10:50:19.407Z,101614.81
2017-10-31T10:52:46.850Z,101603.75
2017-10-31T10:55:14.306Z,101600.20
2017-10-31T10:57:41.741Z,101597.11
2017-10-31T11:00:09.198Z,101605.05
2017-10-31T11:02:36.673Z,101596.22
2017-10-31T11:05:04.153Z,101595.27
2017-10-31T11:07:31.618Z,101589.45
2017-10-31T11:09:59.059Z,101592.50
2017-10-31T11:12:26.521Z,101586.77
2017-10-31T11:14:53.958Z,101585.77
2017-10-31T11:17:21.425Z,101584.41
2017-10-31T11:19:48.870Z,101584.91
2017-10-31T11:22:16.329Z,101579.86
2017-10-31T11:24:43.782Z,101581.59
2017-10-31T11:27:11.253Z,101575.42
2017-10-31T11:29:38.686Z,101569.13
2017-10-31T11:32:06.177Z,101562.63
2017-10-31T11:34:33.635Z,101562.72
2017-10-31T11:37:01.069Z,101554.66
2017-10-31T11:39:28.561Z,101558.87
2017-10-31T11:41:56.008Z,101558.95
2017-10-31T11:44:23.566Z,101542.41
2017-10-31T11:46:51.001Z,101537.94
2017-10-31T11:49:18.486Z,101537.55
2017-10-31T11:51:45.927Z,101545.23
2017-10-31T11:54:13.486Z,101540.84
2017-10-31T11:56:40.942Z,101533.52
2017-10-31T11:59:08.575Z,101536.44
2017-10-31T12:01:36.011Z,101531.84
2017-10-31T12:04:03.446Z,101524.41
2017-10-31T12:06:30.907Z,101518.63
2017-10-31T12:08:58.433Z,101513.81
2017-10-31T12:11:25.902Z,101511.28
2017-10-31T12:13:53.411Z,101508.86
2017-10-31T12:16:20.867Z,101501.50
2017-10-31T12:18:48.306Z,101504.33
2017-10-31T12:21:15.835Z,101504.63
2017-10-31T12:23:43.299Z,101507.95
2017-10-31T12:26:10.762Z,101501.68
2017-10-31T12:28:38.202Z,101500.41
2017-10-31T12:31:05.661Z,101504.80
2017-10-31T12:33:33.137Z,101494.61
2017-10-31T12:36:00.626Z,101490.17
2017-10-31T12:38:28.082Z,101487.30
2017-10-31T12:40:55.557Z,101484.72
2017-10-31T12:43:22.994Z,101488.92
2017-10-31T12:45:50.458Z,101483.09
2017-10-31T12:48:17.929Z,101484.45
2017-10-31T12:50:45.381Z,101491.11
2017-10-31T12:53:12.847Z,101489.19
2017-10-31T12:55:40.311Z,101487.23
2017-10-31T12:58:07.874Z,101490.76
2017-10-31T13:00:35.315Z,101487.83
2017-10-31T13:03:02.792Z,101485.56
2017-10-31T13:05:30.249Z,101495.97
2017-10-31T13:07:57.721Z,101486.52
2017-10-31T13:10:25.269Z,101476.75
2017-10-31T13:12:52.723Z,101486.97
2017-10-31T13:15:20.157Z,101481.47
2017-10-31T13:17:47.625Z,101473.00
2017-10-31T13:20:15.064Z,101471.63
2017-10-31T13:22:42.559Z,101472.91
2017-10-31T13:25:10.008Z,101473.42
2017-10-31T13:27:38.170Z,101470.67
2017-10-31T13:30:06.520Z,101465.50
2017-10-31T13:32:34.876Z,101464.98
2017-10-31T13:35:03.241Z,101469.28
2017-10-31T13:37:31.414Z,101463.37
2017-10-31T13:39:59.707Z,101460.59
2017-10-31T13:42:27.963Z,101454.23
2017-10-31T13:44:55.422Z,101452.61
2017-10-31T13:47:23.808Z,101450.41
2017-10-31T13:49:51.364Z,101446.31
2017-10-31T13:52:19.668Z,101448.98
2017-10-31T13:54:47.144Z,101452.66
2017-10-31T13:57:14.593Z,101452.10
2017-10-31T13:59:42.068Z,101442.58
2017-10-31T14:02:10.065Z,101439.03
2017-10-31T14:04:38.446Z,101434.83
2017-10-31T14:07:06.277Z,101436.02
2017-10-31T14:09:34.692Z,101441.27
2017-10-31T14:12:02.991Z,101441.29
2017-10-31T14:14:30.490Z,101438.09
2017-10-31T14:16:57.976Z,101448.95
2017-10-31T14:19:26.269Z,101441.93
2017-10-31T14:21:54.563Z,101441.05
2017-10-31T14:24:22.005Z,101440.73
2017-10-31T14:26:49.515Z,101442.80
2017-10-31T14:29:16.973Z,101439.62
2017-10-31T14:31:44.425Z,101434.94
2017-10-31T14:34:11.876Z,101427.13
2017-10-31T14:36:39.330Z,101428.30
2017-10-31T14:39:06.776Z,101421.02
2017-10-31T14:41:34.258Z,101421.76
2017-10-31T14:44:01.691Z,101419.52
2017-10-31T14:46:29.166Z,101412.45
2017-10-31T14:48:56.610Z,101414.31
2017-10-31T14:51:24.046Z,101410.83
2017-10-31T14:53:51.503Z,101409.29
2017-10-31T14:56:18.973Z,101407.52
2017-10-31T14:58:46.467Z,101407.97
2017-10-31T15:01:13.902Z,101410.41
2017-10-31T15:03:41.476Z,101407.17
2017-10-31T15:06:08.913Z,101407.30
2017-10-31T15:08:36.392Z,101405.43
2017-10-31T15:11:03.834Z,101408.52
2017-10-31T15:13:31.298Z,101398.39
2017-10-31T15:15:58.735Z,101393.09
2017-10-31T15:18:26.203Z,101387.36
2017-10-31T15:20:53.648Z,101383.91
2017-10-31T15:23:21.114Z,101380.75
2017-10-31T15:25:48.569Z,101377.32
2017-10-31T15:28:16.013Z,101376.04
2017-10-31T15:30:43.470Z,101370.94
2017-10-31T15:33:10.913Z,101367.89
2017-10-31T15:35:38.382Z,101365.13
2017-10-31T15:38:05.871Z,101369.03
2017-10-31T15:40:33.341Z,101369.48
2017-10-31T15:43:00.778Z,101370.02
2017-10-31T15:45:28.361Z,101369.26
2017-10-31T15:47:55.797Z,101373.88
2017-10-31T15:50:23.254Z,101383.97
2017-10-31T15:52:50.693Z,101383.78
2017-10-31T15:55:18.171Z,101383.36
2017-10-31T15:57:45.627Z,101386.41
2017-10-31T16:00:13.112Z,101390.47
2017-10-31T16:02:40.621Z,101394.94
2017-10-31T16:05:08.055Z,101384.41
2017-10-31T16:07:35.603Z,101385.00
2017-10-31T16:10:03.052Z,101383.80
2017-10-31T16:12:30.554Z,101389.11
2017-10-31T16:14:58.015Z,101394.88
2017-10-31T16:17:25.602Z,101393.56
2017-10-31T16:19:53.112Z,101393.58
2017-10-31T16:22:20.604Z,101399.83
2017-10-31T16:24:48.079Z,101410.95
2017-10-31T16:27:15.590Z,101412.25
2017-10-31T16:29:43.051Z,101410.42
2017-10-31T16:32:10.549Z,101413.98
2017-10-31T16:34:38.069Z,101415.80
2017-10-31T16:37:05.534Z,101409.11
2017-10-31T16:39:32.977Z,101414.49
2017-10-31T16:42:00.410Z,101408.38
2017-10-31T16:44:27.902Z,101417.76
2017-10-31T16:46:55.353Z,101416.02
2017-10-31T16:49:22.914Z,101403.67
2017-10-31T16:51:50.371Z,101420.01
2017-10-31T16:54:17.859Z,101421.94
2017-10-31T16:56:45.287Z,101420.63
2017-10-31T16:59:13.045Z,101410.47
2017-10-31T17:01:40.602Z,101418.90
2017-10-31T17:04:08.058Z,101421.97
2017-10-31T17:06:35.514Z,101427.77
2017-10-31T17:09:03.446Z,101420.28
2017-10-31T17:11:30.930Z,101426.44
2017-10-31T17:13:58.382Z,101432.17
2017-10-31T17:16:25.810Z,101430.01
2017-10-31T17:18:53.352Z,101431.33
2017-10-31T17:21:20.791Z,101428.22
2017-10-31T17:23:48.340Z,101422.91
2017-10-31T17:26:15.783Z,101422.52
2017-10-31T17:28:43.235Z,101430.02
2017-10-31T17:31:10.691Z,101429.56
2017-10-31T17:33:38.128Z,101430.92
2017-10-31T17:36:05.654Z,101427.00
2017-10-31T17:38:33.105Z,101420.81
2017-10-31T17:41:00.558Z,101424.81
2017-10-31T17:43:28.003Z,101430.55
2017-10-31T17:45:55.545Z,101431.88
2017-10-31T17:48:22.998Z,101435.84
2017-10-31T17:50:50.500Z,101432.77
2017-10-31T17:53:17.934Z,101435.37
2017-10-31T17:55:45.394Z,101444.63
2017-10-31T17:58:12.837Z,101445.50
2017-10-31T18:00:40.321Z,101443.70
2017-10-31T18:03:07.864Z,101442.78
2017-10-31T18:05:35.312Z,101450.31
2017-10-31T18:08:02.788Z,101446.29
2017-10-31T18:10:30.230Z,101442.73
2017-10-31T18:12:57.709Z,101449.33
2017-10-31T18:15:25.245Z,101446.28
2017-10-31T18:17:52.778Z,101441.86
2017-10-31T18:20:20.252Z,101442.73
2017-10-31T18:22:47.721Z,101446.33
2017-10-31T18:25:15.166Z,101439.23
2017-10-31T18:27:42.620Z,101438.88
2017-10-31T18:30:10.186Z,101431.36
2017-10-31T18:32:37.646Z,101434.83
2017-10-31T18:35:05.086Z,101429.55
2017-10-31T18:37:32.574Z,101427.81
2017-10-31T18:40:00.028Z,101425.17
2017-10-31T18:42:27.557Z,101430.01
2017-10-31T18:44:55.009Z,101425.11
2017-10-31T18:47:22.445Z,101421.07
2017-10-31T18:49:49.904Z,101420.18
2017-10-31T18:52:17.365Z,101412.66
2017-10-31T18:54:44.821Z,101419.73
2017-10-31T18:57:12.255Z,101421.91
2017-10-31T18:59:39.744Z,101423.68
2017-10-31T19:02:07.700Z,101422.39
2017-10-31T19:04:35.167Z,101420.59
2017-10-31T19:07:02.596Z,101419.23
2017-10-31T19:09:30.056Z,101417.91
2017-10-31T19:11:57.496Z,101417.92
2017-10-31T19:14:24.955Z,101415.31
2017-10-31T19:16:52.451Z,101412.20
2017-10-31T19:19:19.905Z,101407.76
2017-10-31T19:21:47.333Z,101407.30
2017-10-31T19:24:14.835Z,101415.28
2017-10-31T19:26:42.305Z,101409.06
2017-10-31T19:29:09.770Z,101409.91
2017-10-31T19:31:37.207Z,101407.72
2017-10-31T19:34:04.678Z,101412.11
2017-10-31T19:36:32.114Z,101405.45
2017-10-31T19:38:59.581Z,101407.69
2017-10-31T19:41:27.139Z,101404.18
2017-10-31T19:43:54.639Z,101411.28
2017-10-31T19:46:22.078Z,101403.37
2017-10-31T19:48:49.595Z,101407.35
2017-10-31T19:51:17.055Z,101397.20
2017-10-31T19:53:44.501Z,101391.45
2017-10-31T19:56:11.968Z,101391.46
2017-10-31T19:58:39.435Z,101393.19
2017-10-31T20:01:06.908Z,101399.35
2017-10-31T20:03:34.342Z,101396.67
2017-10-31T20:06:01.893Z,101390.90
2017-10-31T20:08:29.342Z,101391.44
2017-10-31T20:10:56.802Z,101390.97
2017-10-31T20:13:24.326Z,101388.27
2017-10-31T20:15:51.778Z,101387.38
2017-10-31T20:18:19.225Z,101381.61
2017-10-31T20:20:46.695Z,101388.28
2017-10-31T20:23:14.166Z,101388.25
2017-10-31T20:25:41.626Z,101387.36
2017-10-31T20:28:09.068Z,101394.50
2017-10-31T20:30:36.574Z,101394.92
2017-10-31T20:33:04.068Z,101393.12
2017-10-31T20:35:31.570Z,101390.08
2017-10-31T20:37:59.035Z,101389.67
2017-10-31T20:40:26.483Z,101382.59
2017-10-31T20:42:53.949Z,101389.58
2017-10-31T20:45:21.384Z,101386.52
2017-10-31T20:47:48.845Z,101386.52
2017-10-31T20:50:16.313Z,101382.95
2017-10-31T20:52:43.793Z,101381.16
2017-10-31T20:55:11.250Z,101376.41
2017-10-31T20:57:38.714Z,101371.96
2017-10-31T21:00:06.168Z,101373.29
2017-10-31T21:02:33.654Z,101378.09
2017-10-31T21:05:01.098Z,101379.44
2017-10-31T21:07:28.624Z,101369.34
2017-10-31T21:09:56.086Z,101368.92
2017-10-31T21:12:23.634Z,101363.66
2017-10-31T21:14:51.113Z,101358.80
2017-10-31T21:17:18.554Z,101357.45
2017-10-31T21:19:46.062Z,101358.33
2017-10-31T21:22:13.643Z,101350.39
2017-10-31T21:24:41.099Z,101359.66
2017-10-31T21:27:08.542Z,101352.98
2017-10-31T21:29:36.026Z,101357.38
2017-10-31T21:32:03.492Z,101344.95
2017-10-31T21:34:30.996Z,101348.55
2017-10-31T21:36:58.432Z,101347.27
2017-10-31T21:39:25.893Z,101353.86
2017-10-31T21:41:53.377Z,101349.91
2017-10-31T21:44:20.834Z,101343.77
2017-10-31T21:46:48.304Z,101345.06
2017-10-31T21:49:15.893Z,101338.84
2017-10-31T21:51:43.340Z,101339.73
2017-10-31T21:54:10.795Z,101337.52
2017-10-31T21:56:38.354Z,101348.57
2017-10-31T21:59:05.794Z,101344.16
2017-10-31T22:01:33.289Z,101348.62
2017-10-31T22:04:00.718Z,101345.59
2017-10-31T22:06:28.185Z,101350.02
2017-10-31T22:08:55.684Z,101343.47
2017-10-31T22:11:23.141Z,101351.83
2017-10-31T22:13:50.668Z,101345.22
2017-10-31T22:16:18.131Z,101350.60
2017-10-31T22:18:45.661Z,101348.84
2017-10-31T22:21:13.117Z,101345.29
2017-10-31T22:23:40.591Z,101340.02
2017-10-31T22:26:08.134Z,101342.66
2017-10-31T22:28:35.596Z,101340.89
2017-10-31T22:31:03.047Z,101339.94
2017-10-31T22:33:30.617Z,101347.89
2017-10-31T22:35:58.084Z,101343.03
2017-10-31T22:38:25.542Z,101341.67
2017-10-31T22:40:52.977Z,101342.96
2017-10-31T22:43:20.544Z,101347.42
2017-10-31T22:45:47.976Z,101342.09
2017-10-31T22:48:15.447Z,101345.66
2017-10-31T22:50:42.911Z,101340.31
2017-10-31T22:53:10.366Z,101342.50
2017-10-31T22:55:37.799Z,101342.11
2017-10-31T22:58:05.273Z,101335.47
2017-10-31T23:00:32.706Z,101332.88
2017-10-31T23:03:00.194Z,101332.88
2017-10-31T23:05:27.633Z,101331.58
2017-10-31T23:07:55.100Z,101326.73
2017-10-31T23:10:22.530Z,101323.59
2017-10-31T23:12:49.960Z,101320.93
2017-10-31T23:15:17.434Z,101316.05
2017-10-31T23:17:44.945Z,101319.16
2017-10-31T23:20:12.481Z,101314.30
2017-10-31T23:22:39.925Z,101312.94
2017-10-31T23:25:07.389Z,101312.53
2017-10-31T23:27:34.818Z,101312.98
2017-10-31T23:30:02.324Z,101317.33
2017-10-31T23:32:29.755Z,101315.95
2017-10-31T23:34:57.222Z,101311.94
2017-10-31T23:37:24.667Z,101306.58
2017-10-31T23:39:52.123Z,101309.62
2017-10-31T23:42:19.557Z,101310.12
2017-10-31T23:44:47.021Z,101313.62
2017-10-31T23:47:14.454Z,101305.19
2017-10-31T23:49:41.906Z,101299.89
2017-10-31T23:52:09.423Z,101305.59
2017-10-31T23:54:36.997Z,101304.77
2017-10-31T23:57:04.456Z,101300.81
2017-10-31T23:59:31.998Z,101297.31
